sensor_id;sensor_type;location;lat;lon;timestamp;P1;durP1;ratioP1;P2;durP2;ratioP2
19205;SDS011;59358;52.134;5.596;2023-04-10T00:00:38;26.23;;;17.85;;
19205;SDS011;59358;52.134;5.596;2023-04-10T00:03:07;25.95;;;17.75;;
19205;SDS011;59358;52.134;5.596;2023-04-10T00:05:35;21.45;;;16.17;;
19205;SDS011;59358;52.134;5.596;2023-04-10T00:08:02;25.98;;;17.17;;
19205;SDS011;59358;52.134;5.596;2023-04-10T00:10:29;25.95;;;17.17;;
19205;SDS011;59358;52.134;5.596;2023-04-10T00:12:56;23.25;;;15.90;;
19205;SDS011;59358;52.134;5.596;2023-04-10T00:15:24;21.38;;;15.55;;
19205;SDS011;59358;52.134;5.596;2023-04-10T00:17:54;24.35;;;16.90;;
19205;SDS011;59358;52.134;5.596;2023-04-10T00:20:21;21.38;;;15.13;;
19205;SDS011;59358;52.134;5.596;2023-04-10T00:22:50;23.60;;;15.60;;
19205;SDS011;59358;52.134;5.596;2023-04-10T00:25:17;22.10;;;15.52;;
19205;SDS011;59358;52.134;5.596;2023-04-10T00:27:44;21.55;;;15.75;;
19205;SDS011;59358;52.134;5.596;2023-04-10T00:30:11;22.55;;;15.05;;
19205;SDS011;59358;52.134;5.596;2023-04-10T00:32:38;20.98;;;14.48;;
19205;SDS011;59358;52.134;5.596;2023-04-10T00:35:07;21.33;;;14.68;;
19205;SDS011;59358;52.134;5.596;2023-04-10T00:37:34;19.70;;;14.23;;
19205;SDS011;59358;52.134;5.596;2023-04-10T00:40:01;19.80;;;14.35;;
19205;SDS011;59358;52.134;5.596;2023-04-10T00:42:28;21.45;;;14.43;;
19205;SDS011;59358;52.134;5.596;2023-04-10T00:44:55;19.63;;;13.75;;
19205;SDS011;59358;52.134;5.596;2023-04-10T00:47:22;17.98;;;12.95;;
19205;SDS011;59358;52.134;5.596;2023-04-10T00:49:50;16.50;;;12.18;;
19205;SDS011;59358;52.134;5.596;2023-04-10T00:52:18;17.48;;;12.93;;
19205;SDS011;59358;52.134;5.596;2023-04-10T00:54:45;16.83;;;12.30;;
19205;SDS011;59358;52.134;5.596;2023-04-10T00:57:12;18.00;;;11.88;;
19205;SDS011;59358;52.134;5.596;2023-04-10T00:59:39;19.95;;;12.68;;
19205;SDS011;59358;52.134;5.596;2023-04-10T01:02:06;17.75;;;12.30;;
19205;SDS011;59358;52.134;5.596;2023-04-10T01:04:35;16.17;;;11.52;;
19205;SDS011;59358;52.134;5.596;2023-04-10T01:07:03;16.35;;;12.00;;
19205;SDS011;59358;52.134;5.596;2023-04-10T01:09:40;16.95;;;10.85;;
19205;SDS011;59358;52.134;5.596;2023-04-10T01:12:15;15.35;;;10.82;;
19205;SDS011;59358;52.134;5.596;2023-04-10T01:14:55;17.35;;;10.70;;
19205;SDS011;59358;52.134;5.596;2023-04-10T01:17:28;15.10;;;11.27;;
19205;SDS011;59358;52.134;5.596;2023-04-10T01:20:01;17.73;;;11.27;;
19205;SDS011;59358;52.134;5.596;2023-04-10T01:22:34;14.20;;;10.50;;
19205;SDS011;59358;52.134;5.596;2023-04-10T01:25:23;17.58;;;11.88;;
19205;SDS011;59358;52.134;5.596;2023-04-10T01:28:10;13.77;;;10.65;;
19205;SDS011;59358;52.134;5.596;2023-04-10T01:30:58;16.05;;;11.35;;
19205;SDS011;59358;52.134;5.596;2023-04-10T01:33:29;18.33;;;10.93;;
19205;SDS011;59358;52.134;5.596;2023-04-10T01:36:09;13.93;;;10.65;;
19205;SDS011;59358;52.134;5.596;2023-04-10T01:38:38;12.50;;;10.35;;
19205;SDS011;59358;52.134;5.596;2023-04-10T01:41:08;12.50;;;9.88;;
19205;SDS011;59358;52.134;5.596;2023-04-10T01:43:35;15.60;;;11.20;;
19205;SDS011;59358;52.134;5.596;2023-04-10T01:46:06;15.15;;;10.95;;
19205;SDS011;59358;52.134;5.596;2023-04-10T01:48:33;14.70;;;10.88;;
19205;SDS011;59358;52.134;5.596;2023-04-10T01:51:01;13.05;;;10.30;;
19205;SDS011;59358;52.134;5.596;2023-04-10T01:53:32;14.63;;;10.10;;
19205;SDS011;59358;52.134;5.596;2023-04-10T01:56:00;14.60;;;10.65;;
19205;SDS011;59358;52.134;5.596;2023-04-10T01:58:28;15.95;;;10.30;;
19205;SDS011;59358;52.134;5.596;2023-04-10T02:00:55;13.23;;;9.88;;
19205;SDS011;59358;52.134;5.596;2023-04-10T02:03:23;13.95;;;10.52;;
19205;SDS011;59358;52.134;5.596;2023-04-10T02:05:53;13.85;;;10.07;;
19205;SDS011;59358;52.134;5.596;2023-04-10T02:08:28;14.02;;;10.55;;
19205;SDS011;59358;52.134;5.596;2023-04-10T02:11:01;14.48;;;9.20;;
19205;SDS011;59358;52.134;5.596;2023-04-10T02:13:36;13.15;;;9.60;;
19205;SDS011;59358;52.134;5.596;2023-04-10T02:16:06;14.88;;;10.57;;
19205;SDS011;59358;52.134;5.596;2023-04-10T02:18:35;13.48;;;9.85;;
19205;SDS011;59358;52.134;5.596;2023-04-10T02:21:03;15.75;;;9.93;;
19205;SDS011;59358;52.134;5.596;2023-04-10T02:23:31;17.25;;;11.00;;
19205;SDS011;59358;52.134;5.596;2023-04-10T02:26:04;15.13;;;9.82;;
19205;SDS011;59358;52.134;5.596;2023-04-10T02:28:31;14.55;;;10.90;;
19205;SDS011;59358;52.134;5.596;2023-04-10T02:30:58;15.43;;;10.45;;
19205;SDS011;59358;52.134;5.596;2023-04-10T02:33:25;11.93;;;9.68;;
19205;SDS011;59358;52.134;5.596;2023-04-10T02:35:53;15.18;;;11.13;;
19205;SDS011;59358;52.134;5.596;2023-04-10T02:38:20;13.82;;;10.45;;
19205;SDS011;59358;52.134;5.596;2023-04-10T02:40:47;14.30;;;10.02;;
19205;SDS011;59358;52.134;5.596;2023-04-10T02:43:15;13.27;;;10.20;;
19205;SDS011;59358;52.134;5.596;2023-04-10T02:45:42;14.88;;;10.30;;
19205;SDS011;59358;52.134;5.596;2023-04-10T02:48:09;11.60;;;9.05;;
19205;SDS011;59358;52.134;5.596;2023-04-10T02:50:36;16.67;;;10.65;;
19205;SDS011;59358;52.134;5.596;2023-04-10T02:53:04;14.48;;;10.18;;
19205;SDS011;59358;52.134;5.596;2023-04-10T02:55:31;15.15;;;10.43;;
19205;SDS011;59358;52.134;5.596;2023-04-10T02:57:58;14.90;;;11.00;;
19205;SDS011;59358;52.134;5.596;2023-04-10T03:00:25;15.38;;;10.63;;
19205;SDS011;59358;52.134;5.596;2023-04-10T03:02:51;14.73;;;10.55;;
19205;SDS011;59358;52.134;5.596;2023-04-10T03:05:18;16.75;;;10.52;;
19205;SDS011;59358;52.134;5.596;2023-04-10T03:07:45;14.23;;;9.98;;
19205;SDS011;59358;52.134;5.596;2023-04-10T03:10:13;17.30;;;11.07;;
19205;SDS011;59358;52.134;5.596;2023-04-10T03:12:40;22.15;;;10.52;;
19205;SDS011;59358;52.134;5.596;2023-04-10T03:15:07;15.27;;;10.90;;
19205;SDS011;59358;52.134;5.596;2023-04-10T03:17:35;14.43;;;10.60;;
19205;SDS011;59358;52.134;5.596;2023-04-10T03:20:01;14.93;;;10.30;;
19205;SDS011;59358;52.134;5.596;2023-04-10T03:22:28;15.15;;;11.23;;
19205;SDS011;59358;52.134;5.596;2023-04-10T03:24:56;14.38;;;10.48;;
19205;SDS011;59358;52.134;5.596;2023-04-10T03:27:24;15.55;;;10.68;;
19205;SDS011;59358;52.134;5.596;2023-04-10T03:29:51;13.73;;;10.10;;
19205;SDS011;59358;52.134;5.596;2023-04-10T03:32:18;15.40;;;10.88;;
19205;SDS011;59358;52.134;5.596;2023-04-10T03:34:44;16.50;;;10.68;;
19205;SDS011;59358;52.134;5.596;2023-04-10T03:37:11;14.52;;;10.57;;
19205;SDS011;59358;52.134;5.596;2023-04-10T03:39:38;15.43;;;10.38;;
19205;SDS011;59358;52.134;5.596;2023-04-10T03:42:05;14.43;;;10.20;;
19205;SDS011;59358;52.134;5.596;2023-04-10T03:44:33;23.33;;;11.00;;
19205;SDS011;59358;52.134;5.596;2023-04-10T03:47:00;12.85;;;9.70;;
19205;SDS011;59358;52.134;5.596;2023-04-10T03:49:27;13.90;;;10.50;;
19205;SDS011;59358;52.134;5.596;2023-04-10T03:51:54;13.38;;;10.32;;
19205;SDS011;59358;52.134;5.596;2023-04-10T03:54:21;14.13;;;10.25;;
19205;SDS011;59358;52.134;5.596;2023-04-10T03:56:48;14.45;;;10.05;;
19205;SDS011;59358;52.134;5.596;2023-04-10T03:59:15;16.70;;;10.68;;
19205;SDS011;59358;52.134;5.596;2023-04-10T04:01:43;14.18;;;10.15;;
19205;SDS011;59358;52.134;5.596;2023-04-10T04:04:10;16.30;;;11.45;;
19205;SDS011;59358;52.134;5.596;2023-04-10T04:06:37;15.45;;;12.18;;
19205;SDS011;59358;52.134;5.596;2023-04-10T04:09:04;15.95;;;12.68;;
19205;SDS011;59358;52.134;5.596;2023-04-10T04:11:32;19.63;;;13.25;;
19205;SDS011;59358;52.134;5.596;2023-04-10T04:13:58;18.52;;;14.38;;
19205;SDS011;59358;52.134;5.596;2023-04-10T04:16:25;18.88;;;14.68;;
19205;SDS011;59358;52.134;5.596;2023-04-10T04:18:53;20.42;;;14.50;;
19205;SDS011;59358;52.134;5.596;2023-04-10T04:21:20;20.20;;;14.02;;
19205;SDS011;59358;52.134;5.596;2023-04-10T04:23:47;17.13;;;12.23;;
19205;SDS011;59358;52.134;5.596;2023-04-10T04:26:14;17.15;;;12.80;;
19205;SDS011;59358;52.134;5.596;2023-04-10T04:28:41;16.20;;;11.60;;
19205;SDS011;59358;52.134;5.596;2023-04-10T04:31:08;13.57;;;10.43;;
19205;SDS011;59358;52.134;5.596;2023-04-10T04:33:34;12.32;;;9.68;;
19205;SDS011;59358;52.134;5.596;2023-04-10T04:36:03;14.57;;;10.18;;
19205;SDS011;59358;52.134;5.596;2023-04-10T04:38:30;14.55;;;9.95;;
19205;SDS011;59358;52.134;5.596;2023-04-10T04:40:57;14.43;;;10.05;;
19205;SDS011;59358;52.134;5.596;2023-04-10T04:43:23;13.88;;;10.25;;
19205;SDS011;59358;52.134;5.596;2023-04-10T04:45:50;13.38;;;9.88;;
19205;SDS011;59358;52.134;5.596;2023-04-10T04:48:17;13.48;;;9.93;;
19205;SDS011;59358;52.134;5.596;2023-04-10T04:50:44;11.93;;;9.77;;
19205;SDS011;59358;52.134;5.596;2023-04-10T04:53:12;13.68;;;10.02;;
19205;SDS011;59358;52.134;5.596;2023-04-10T04:55:39;13.68;;;9.73;;
19205;SDS011;59358;52.134;5.596;2023-04-10T04:58:06;13.02;;;10.23;;
19205;SDS011;59358;52.134;5.596;2023-04-10T05:00:33;13.45;;;9.77;;
19205;SDS011;59358;52.134;5.596;2023-04-10T05:03:00;12.75;;;9.60;;
19205;SDS011;59358;52.134;5.596;2023-04-10T05:05:26;14.43;;;10.07;;
19205;SDS011;59358;52.134;5.596;2023-04-10T05:07:53;12.75;;;9.43;;
19205;SDS011;59358;52.134;5.596;2023-04-10T05:10:21;12.68;;;9.80;;
19205;SDS011;59358;52.134;5.596;2023-04-10T05:12:48;14.95;;;9.43;;
19205;SDS011;59358;52.134;5.596;2023-04-10T05:15:15;13.27;;;9.57;;
19205;SDS011;59358;52.134;5.596;2023-04-10T05:17:42;15.02;;;10.60;;
19205;SDS011;59358;52.134;5.596;2023-04-10T05:20:09;15.82;;;10.52;;
19205;SDS011;59358;52.134;5.596;2023-04-10T05:22:36;13.75;;;9.63;;
19205;SDS011;59358;52.134;5.596;2023-04-10T05:25:04;13.50;;;10.18;;
19205;SDS011;59358;52.134;5.596;2023-04-10T05:27:32;15.60;;;10.50;;
19205;SDS011;59358;52.134;5.596;2023-04-10T05:29:59;13.02;;;9.20;;
19205;SDS011;59358;52.134;5.596;2023-04-10T05:32:26;14.48;;;9.23;;
19205;SDS011;59358;52.134;5.596;2023-04-10T05:34:53;13.05;;;9.32;;
19205;SDS011;59358;52.134;5.596;2023-04-10T05:37:20;15.43;;;9.77;;
19205;SDS011;59358;52.134;5.596;2023-04-10T05:39:46;14.18;;;10.23;;
19205;SDS011;59358;52.134;5.596;2023-04-10T05:42:13;14.23;;;9.57;;
19205;SDS011;59358;52.134;5.596;2023-04-10T05:44:42;12.30;;;9.02;;
19205;SDS011;59358;52.134;5.596;2023-04-10T05:47:09;13.95;;;9.57;;
19205;SDS011;59358;52.134;5.596;2023-04-10T05:49:36;13.23;;;9.50;;
19205;SDS011;59358;52.134;5.596;2023-04-10T05:52:03;12.60;;;9.35;;
19205;SDS011;59358;52.134;5.596;2023-04-10T05:54:29;12.85;;;9.65;;
19205;SDS011;59358;52.134;5.596;2023-04-10T05:56:56;13.02;;;9.45;;
19205;SDS011;59358;52.134;5.596;2023-04-10T05:59:23;14.20;;;9.27;;
19205;SDS011;59358;52.134;5.596;2023-04-10T06:01:51;12.35;;;9.32;;
19205;SDS011;59358;52.134;5.596;2023-04-10T06:04:18;13.35;;;10.13;;
19205;SDS011;59358;52.134;5.596;2023-04-10T06:06:46;12.82;;;9.25;;
19205;SDS011;59358;52.134;5.596;2023-04-10T06:09:12;13.55;;;9.50;;
19205;SDS011;59358;52.134;5.596;2023-04-10T06:11:39;11.10;;;9.05;;
19205;SDS011;59358;52.134;5.596;2023-04-10T06:14:06;13.23;;;9.65;;
19205;SDS011;59358;52.134;5.596;2023-04-10T06:16:33;12.32;;;8.95;;
19205;SDS011;59358;52.134;5.596;2023-04-10T06:19:01;12.18;;;8.30;;
19205;SDS011;59358;52.134;5.596;2023-04-10T06:21:28;13.85;;;9.00;;
19205;SDS011;59358;52.134;5.596;2023-04-10T06:23:55;12.98;;;9.15;;
19205;SDS011;59358;52.134;5.596;2023-04-10T06:26:23;11.93;;;8.65;;
19205;SDS011;59358;52.134;5.596;2023-04-10T06:28:50;12.32;;;8.90;;
19205;SDS011;59358;52.134;5.596;2023-04-10T06:31:18;13.27;;;9.30;;
19205;SDS011;59358;52.134;5.596;2023-04-10T06:33:46;14.38;;;9.55;;
19205;SDS011;59358;52.134;5.596;2023-04-10T06:36:14;11.23;;;8.65;;
19205;SDS011;59358;52.134;5.596;2023-04-10T06:38:41;12.93;;;9.68;;
19205;SDS011;59358;52.134;5.596;2023-04-10T06:41:08;13.60;;;9.52;;
19205;SDS011;59358;52.134;5.596;2023-04-10T06:43:35;13.13;;;10.35;;
19205;SDS011;59358;52.134;5.596;2023-04-10T06:46:07;14.35;;;9.95;;
19205;SDS011;59358;52.134;5.596;2023-04-10T06:48:34;12.48;;;10.02;;
19205;SDS011;59358;52.134;5.596;2023-04-10T06:51:01;10.40;;;9.10;;
19205;SDS011;59358;52.134;5.596;2023-04-10T06:53:29;12.93;;;10.15;;
19205;SDS011;59358;52.134;5.596;2023-04-10T06:55:56;13.52;;;10.10;;
19205;SDS011;59358;52.134;5.596;2023-04-10T06:58:23;12.77;;;9.23;;
19205;SDS011;59358;52.134;5.596;2023-04-10T07:00:50;12.93;;;9.15;;
19205;SDS011;59358;52.134;5.596;2023-04-10T07:03:18;12.73;;;8.40;;
19205;SDS011;59358;52.134;5.596;2023-04-10T07:05:45;11.25;;;8.43;;
19205;SDS011;59358;52.134;5.596;2023-04-10T07:08:11;11.70;;;8.85;;
19205;SDS011;59358;52.134;5.596;2023-04-10T07:10:39;11.13;;;8.05;;
19205;SDS011;59358;52.134;5.596;2023-04-10T07:13:06;11.80;;;9.13;;
19205;SDS011;59358;52.134;5.596;2023-04-10T07:15:33;12.13;;;8.98;;
19205;SDS011;59358;52.134;5.596;2023-04-10T07:18:00;12.95;;;8.10;;
19205;SDS011;59358;52.134;5.596;2023-04-10T07:20:27;10.88;;;7.38;;
19205;SDS011;59358;52.134;5.596;2023-04-10T07:22:53;14.00;;;8.30;;
19205;SDS011;59358;52.134;5.596;2023-04-10T07:25:20;10.95;;;8.13;;
19205;SDS011;59358;52.134;5.596;2023-04-10T07:27:48;9.70;;;7.43;;
19205;SDS011;59358;52.134;5.596;2023-04-10T07:30:15;12.15;;;8.30;;
19205;SDS011;59358;52.134;5.596;2023-04-10T07:32:42;10.48;;;8.32;;
19205;SDS011;59358;52.134;5.596;2023-04-10T07:35:09;9.85;;;8.00;;
19205;SDS011;59358;52.134;5.596;2023-04-10T07:37:35;10.95;;;8.45;;
19205;SDS011;59358;52.134;5.596;2023-04-10T07:40:04;11.02;;;8.05;;
19205;SDS011;59358;52.134;5.596;2023-04-10T07:42:31;10.10;;;8.07;;
19205;SDS011;59358;52.134;5.596;2023-04-10T07:44:59;9.65;;;7.85;;
19205;SDS011;59358;52.134;5.596;2023-04-10T07:47:26;12.23;;;8.57;;
19205;SDS011;59358;52.134;5.596;2023-04-10T07:49:53;14.77;;;8.23;;
19205;SDS011;59358;52.134;5.596;2023-04-10T07:52:20;9.15;;;7.57;;
19205;SDS011;59358;52.134;5.596;2023-04-10T07:54:47;11.18;;;8.45;;
19205;SDS011;59358;52.134;5.596;2023-04-10T07:57:14;9.70;;;7.88;;
19205;SDS011;59358;52.134;5.596;2023-04-10T07:59:41;10.77;;;8.65;;
19205;SDS011;59358;52.134;5.596;2023-04-10T08:02:09;10.90;;;8.63;;
19205;SDS011;59358;52.134;5.596;2023-04-10T08:04:36;11.00;;;8.65;;
19205;SDS011;59358;52.134;5.596;2023-04-10T08:07:03;13.45;;;9.32;;
19205;SDS011;59358;52.134;5.596;2023-04-10T08:09:30;11.10;;;8.40;;
19205;SDS011;59358;52.134;5.596;2023-04-10T08:11:56;10.48;;;8.27;;
19205;SDS011;59358;52.134;5.596;2023-04-10T08:14:24;12.63;;;9.40;;
19205;SDS011;59358;52.134;5.596;2023-04-10T08:16:50;11.20;;;8.18;;
19205;SDS011;59358;52.134;5.596;2023-04-10T08:19:18;9.50;;;8.05;;
19205;SDS011;59358;52.134;5.596;2023-04-10T08:21:45;9.82;;;7.95;;
19205;SDS011;59358;52.134;5.596;2023-04-10T08:24:12;14.10;;;9.02;;
19205;SDS011;59358;52.134;5.596;2023-04-10T08:26:39;10.07;;;8.13;;
19205;SDS011;59358;52.134;5.596;2023-04-10T08:29:05;12.73;;;9.50;;
19205;SDS011;59358;52.134;5.596;2023-04-10T08:31:32;10.82;;;8.77;;
19205;SDS011;59358;52.134;5.596;2023-04-10T08:33:59;9.93;;;8.35;;
19205;SDS011;59358;52.134;5.596;2023-04-10T08:36:29;11.77;;;8.93;;
19205;SDS011;59358;52.134;5.596;2023-04-10T08:38:56;14.25;;;9.50;;
19205;SDS011;59358;52.134;5.596;2023-04-10T08:41:23;10.25;;;8.80;;
19205;SDS011;59358;52.134;5.596;2023-04-10T08:43:50;11.05;;;8.48;;
19205;SDS011;59358;52.134;5.596;2023-04-10T08:46:17;10.98;;;9.02;;
19205;SDS011;59358;52.134;5.596;2023-04-10T08:48:45;12.98;;;8.70;;
19205;SDS011;59358;52.134;5.596;2023-04-10T08:51:14;10.88;;;8.93;;
19205;SDS011;59358;52.134;5.596;2023-04-10T08:53:46;10.95;;;9.25;;
19205;SDS011;59358;52.134;5.596;2023-04-10T08:56:16;12.55;;;9.30;;
19205;SDS011;59358;52.134;5.596;2023-04-10T08:58:43;11.32;;;9.20;;
19205;SDS011;59358;52.134;5.596;2023-04-10T09:01:10;10.93;;;8.68;;
19205;SDS011;59358;52.134;5.596;2023-04-10T09:03:37;10.57;;;8.35;;
19205;SDS011;59358;52.134;5.596;2023-04-10T09:06:05;14.13;;;9.80;;
19205;SDS011;59358;52.134;5.596;2023-04-10T09:08:32;10.85;;;8.95;;
19205;SDS011;59358;52.134;5.596;2023-04-10T09:11:00;11.77;;;9.68;;
19205;SDS011;59358;52.134;5.596;2023-04-10T09:13:37;9.27;;;8.25;;
19205;SDS011;59358;52.134;5.596;2023-04-10T09:16:05;14.20;;;10.68;;
19205;SDS011;59358;52.134;5.596;2023-04-10T09:18:40;12.98;;;9.32;;
19205;SDS011;59358;52.134;5.596;2023-04-10T09:21:08;14.93;;;9.77;;
19205;SDS011;59358;52.134;5.596;2023-04-10T09:23:35;12.20;;;9.15;;
19205;SDS011;59358;52.134;5.596;2023-04-10T09:26:06;13.70;;;9.65;;
19205;SDS011;59358;52.134;5.596;2023-04-10T09:28:55;12.50;;;9.27;;
19205;SDS011;59358;52.134;5.596;2023-04-10T09:31:26;10.50;;;9.30;;
19205;SDS011;59358;52.134;5.596;2023-04-10T09:34:05;11.85;;;8.70;;
19205;SDS011;59358;52.134;5.596;2023-04-10T09:36:37;11.80;;;9.38;;
19205;SDS011;59358;52.134;5.596;2023-04-10T09:39:05;13.88;;;9.65;;
19205;SDS011;59358;52.134;5.596;2023-04-10T09:41:34;11.07;;;9.00;;
19205;SDS011;59358;52.134;5.596;2023-04-10T09:44:12;12.52;;;8.68;;
19205;SDS011;59358;52.134;5.596;2023-04-10T09:46:39;11.00;;;9.00;;
19205;SDS011;59358;52.134;5.596;2023-04-10T09:49:06;11.10;;;9.43;;
19205;SDS011;59358;52.134;5.596;2023-04-10T09:51:34;9.88;;;8.85;;
19205;SDS011;59358;52.134;5.596;2023-04-10T09:54:01;11.57;;;9.05;;
19205;SDS011;59358;52.134;5.596;2023-04-10T09:56:29;11.20;;;8.73;;
19205;SDS011;59358;52.134;5.596;2023-04-10T09:58:58;11.05;;;8.57;;
19205;SDS011;59358;52.134;5.596;2023-04-10T10:01:28;10.18;;;8.45;;
19205;SDS011;59358;52.134;5.596;2023-04-10T10:03:58;12.10;;;8.52;;
19205;SDS011;59358;52.134;5.596;2023-04-10T10:06:28;11.68;;;8.95;;
19205;SDS011;59358;52.134;5.596;2023-04-10T10:08:57;10.63;;;8.90;;
19205;SDS011;59358;52.134;5.596;2023-04-10T10:11:27;10.30;;;8.48;;
19205;SDS011;59358;52.134;5.596;2023-04-10T10:14:00;11.10;;;8.40;;
19205;SDS011;59358;52.134;5.596;2023-04-10T10:16:31;10.73;;;8.80;;
19205;SDS011;59358;52.134;5.596;2023-04-10T10:19:03;10.18;;;8.57;;
19205;SDS011;59358;52.134;5.596;2023-04-10T10:21:34;11.18;;;8.20;;
19205;SDS011;59358;52.134;5.596;2023-04-10T10:24:06;10.07;;;7.80;;
19205;SDS011;59358;52.134;5.596;2023-04-10T10:26:33;10.10;;;8.85;;
19205;SDS011;59358;52.134;5.596;2023-04-10T10:29:04;10.25;;;8.43;;
19205;SDS011;59358;52.134;5.596;2023-04-10T10:31:34;11.05;;;8.68;;
19205;SDS011;59358;52.134;5.596;2023-04-10T10:34:02;8.98;;;7.95;;
19205;SDS011;59358;52.134;5.596;2023-04-10T10:36:31;10.27;;;8.35;;
19205;SDS011;59358;52.134;5.596;2023-04-10T10:39:03;10.05;;;8.18;;
19205;SDS011;59358;52.134;5.596;2023-04-10T10:41:43;10.88;;;7.78;;
19205;SDS011;59358;52.134;5.596;2023-04-10T10:44:27;9.02;;;7.43;;
19205;SDS011;59358;52.134;5.596;2023-04-10T10:47:01;9.02;;;7.97;;
19205;SDS011;59358;52.134;5.596;2023-04-10T10:49:54;8.93;;;7.93;;
19205;SDS011;59358;52.134;5.596;2023-04-10T10:52:38;9.50;;;7.78;;
19205;SDS011;59358;52.134;5.596;2023-04-10T10:58:01;10.07;;;7.78;;
19205;SDS011;59358;52.134;5.596;2023-04-10T11:03:40;9.40;;;7.75;;
19205;SDS011;59358;52.134;5.596;2023-04-10T11:06:09;10.00;;;8.15;;
19205;SDS011;59358;52.134;5.596;2023-04-10T11:08:37;10.13;;;8.52;;
19205;SDS011;59358;52.134;5.596;2023-04-10T11:11:10;9.25;;;8.25;;
19205;SDS011;59358;52.134;5.596;2023-04-10T11:16:42;12.23;;;8.60;;
19205;SDS011;59358;52.134;5.596;2023-04-10T11:19:12;11.70;;;8.80;;
19205;SDS011;59358;52.134;5.596;2023-04-10T11:22:00;10.38;;;8.20;;
19205;SDS011;59358;52.134;5.596;2023-04-10T11:24:29;9.55;;;8.07;;
19205;SDS011;59358;52.134;5.596;2023-04-10T11:27:39;9.18;;;8.07;;
19205;SDS011;59358;52.134;5.596;2023-04-10T11:30:24;9.73;;;7.45;;
19205;SDS011;59358;52.134;5.596;2023-04-10T11:32:55;10.52;;;8.30;;
19205;SDS011;59358;52.134;5.596;2023-04-10T11:35:25;10.32;;;8.50;;
19205;SDS011;59358;52.134;5.596;2023-04-10T11:38:11;9.73;;;8.18;;
19205;SDS011;59358;52.134;5.596;2023-04-10T11:40:54;8.60;;;7.05;;
19205;SDS011;59358;52.134;5.596;2023-04-10T11:43:22;12.30;;;7.70;;
19205;SDS011;59358;52.134;5.596;2023-04-10T11:45:49;9.40;;;8.00;;
19205;SDS011;59358;52.134;5.596;2023-04-10T11:48:23;9.00;;;7.00;;
19205;SDS011;59358;52.134;5.596;2023-04-10T11:50:51;9.00;;;7.20;;
19205;SDS011;59358;52.134;5.596;2023-04-10T11:53:19;9.70;;;7.90;;
19205;SDS011;59358;52.134;5.596;2023-04-10T11:55:46;13.38;;;7.47;;
19205;SDS011;59358;52.134;5.596;2023-04-10T11:58:23;8.45;;;6.60;;
19205;SDS011;59358;52.134;5.596;2023-04-10T12:00:57;9.30;;;7.47;;
19205;SDS011;59358;52.134;5.596;2023-04-10T12:03:32;10.00;;;8.02;;
19205;SDS011;59358;52.134;5.596;2023-04-10T12:06:01;9.20;;;7.88;;
19205;SDS011;59358;52.134;5.596;2023-04-10T12:08:32;9.07;;;7.63;;
19205;SDS011;59358;52.134;5.596;2023-04-10T12:11:00;9.05;;;7.88;;
19205;SDS011;59358;52.134;5.596;2023-04-10T12:13:27;9.15;;;7.47;;
19205;SDS011;59358;52.134;5.596;2023-04-10T12:15:56;12.02;;;7.35;;
19205;SDS011;59358;52.134;5.596;2023-04-10T12:18:25;7.85;;;6.97;;
19205;SDS011;59358;52.134;5.596;2023-04-10T12:20:53;7.95;;;6.95;;
19205;SDS011;59358;52.134;5.596;2023-04-10T12:23:23;8.63;;;7.18;;
19205;SDS011;59358;52.134;5.596;2023-04-10T12:25:51;7.35;;;6.65;;
19205;SDS011;59358;52.134;5.596;2023-04-10T12:28:18;8.13;;;6.90;;
19205;SDS011;59358;52.134;5.596;2023-04-10T12:30:46;7.22;;;6.53;;
19205;SDS011;59358;52.134;5.596;2023-04-10T12:33:19;7.00;;;6.25;;
19205;SDS011;59358;52.134;5.596;2023-04-10T12:35:46;9.68;;;7.07;;
19205;SDS011;59358;52.134;5.596;2023-04-10T12:38:13;9.02;;;7.10;;
19205;SDS011;59358;52.134;5.596;2023-04-10T12:43:31;7.60;;;5.97;;
19205;SDS011;59358;52.134;5.596;2023-04-10T12:46:00;7.90;;;5.57;;
19205;SDS011;59358;52.134;5.596;2023-04-10T12:48:28;6.35;;;5.72;;
19205;SDS011;59358;52.134;5.596;2023-04-10T12:50:55;6.60;;;5.95;;
19205;SDS011;59358;52.134;5.596;2023-04-10T12:53:23;6.25;;;5.60;;
19205;SDS011;59358;52.134;5.596;2023-04-10T12:55:58;7.82;;;5.80;;
19205;SDS011;59358;52.134;5.596;2023-04-10T12:58:26;6.60;;;5.85;;
19205;SDS011;59358;52.134;5.596;2023-04-10T13:00:55;8.35;;;6.45;;
19205;SDS011;59358;52.134;5.596;2023-04-10T13:03:23;9.10;;;6.07;;
19205;SDS011;59358;52.134;5.596;2023-04-10T13:05:50;8.73;;;5.80;;
19205;SDS011;59358;52.134;5.596;2023-04-10T13:08:18;8.60;;;5.85;;
19205;SDS011;59358;52.134;5.596;2023-04-10T13:10:45;5.30;;;4.80;;
19205;SDS011;59358;52.134;5.596;2023-04-10T13:13:14;6.22;;;5.55;;
19205;SDS011;59358;52.134;5.596;2023-04-10T13:15:42;6.75;;;5.35;;
19205;SDS011;59358;52.134;5.596;2023-04-10T13:18:09;6.25;;;5.50;;
19205;SDS011;59358;52.134;5.596;2023-04-10T13:20:37;7.80;;;5.97;;
19205;SDS011;59358;52.134;5.596;2023-04-10T13:23:05;8.05;;;6.20;;
19205;SDS011;59358;52.134;5.596;2023-04-10T13:25:36;7.85;;;5.30;;
19205;SDS011;59358;52.134;5.596;2023-04-10T13:28:05;6.90;;;5.80;;
19205;SDS011;59358;52.134;5.596;2023-04-10T13:30:37;6.28;;;5.38;;
19205;SDS011;59358;52.134;5.596;2023-04-10T13:33:06;7.25;;;5.63;;
19205;SDS011;59358;52.134;5.596;2023-04-10T13:35:34;5.97;;;4.97;;
19205;SDS011;59358;52.134;5.596;2023-04-10T13:38:01;6.40;;;5.70;;
19205;SDS011;59358;52.134;5.596;2023-04-10T13:40:29;7.88;;;5.63;;
19205;SDS011;59358;52.134;5.596;2023-04-10T13:42:56;9.60;;;6.22;;
19205;SDS011;59358;52.134;5.596;2023-04-10T13:45:22;6.47;;;5.53;;
19205;SDS011;59358;52.134;5.596;2023-04-10T13:47:51;6.63;;;5.53;;
19205;SDS011;59358;52.134;5.596;2023-04-10T13:50:17;8.32;;;5.50;;
19205;SDS011;59358;52.134;5.596;2023-04-10T13:52:45;6.28;;;5.57;;
19205;SDS011;59358;52.134;5.596;2023-04-10T13:55:12;6.45;;;5.53;;
19205;SDS011;59358;52.134;5.596;2023-04-10T13:57:39;6.65;;;5.72;;
19205;SDS011;59358;52.134;5.596;2023-04-10T14:00:06;8.52;;;5.90;;
19205;SDS011;59358;52.134;5.596;2023-04-10T14:02:34;6.95;;;5.85;;
19205;SDS011;59358;52.134;5.596;2023-04-10T14:05:02;6.05;;;5.45;;
19205;SDS011;59358;52.134;5.596;2023-04-10T14:07:30;5.78;;;5.20;;
19205;SDS011;59358;52.134;5.596;2023-04-10T14:09:57;6.50;;;5.75;;
19205;SDS011;59358;52.134;5.596;2023-04-10T14:12:24;11.32;;;6.70;;
19205;SDS011;59358;52.134;5.596;2023-04-10T14:14:51;6.93;;;5.47;;
19205;SDS011;59358;52.134;5.596;2023-04-10T14:17:18;7.13;;;5.57;;
19205;SDS011;59358;52.134;5.596;2023-04-10T14:19:44;5.85;;;4.68;;
19205;SDS011;59358;52.134;5.596;2023-04-10T14:22:16;5.40;;;4.90;;
19205;SDS011;59358;52.134;5.596;2023-04-10T14:24:43;5.15;;;4.65;;
19205;SDS011;59358;52.134;5.596;2023-04-10T14:27:10;5.90;;;4.18;;
19205;SDS011;59358;52.134;5.596;2023-04-10T14:29:37;6.22;;;4.70;;
19205;SDS011;59358;52.134;5.596;2023-04-10T14:32:04;6.22;;;4.75;;
19205;SDS011;59358;52.134;5.596;2023-04-10T14:34:31;6.18;;;4.88;;
19205;SDS011;59358;52.134;5.596;2023-04-10T14:36:58;5.85;;;5.00;;
19205;SDS011;59358;52.134;5.596;2023-04-10T14:39:26;8.52;;;6.00;;
19205;SDS011;59358;52.134;5.596;2023-04-10T14:41:53;7.78;;;5.78;;
19205;SDS011;59358;52.134;5.596;2023-04-10T14:44:21;10.77;;;6.03;;
19205;SDS011;59358;52.134;5.596;2023-04-10T14:46:47;8.80;;;5.68;;
19205;SDS011;59358;52.134;5.596;2023-04-10T14:49:14;7.40;;;6.18;;
19205;SDS011;59358;52.134;5.596;2023-04-10T14:51:41;7.95;;;5.22;;
19205;SDS011;59358;52.134;5.596;2023-04-10T14:54:09;5.60;;;4.97;;